Terminal Aerodrome Forecast
Issued by NWS

Home | Current Version | Previous Version | Graphics & Text | Print | Product List | Glossary On
Versions: 1 2 3 4 5 6 7 8 9 10 11 12 13 14 15 16 17 18 19 20 21 22 23 24 25 26 27 28 29
000
FTUS42 KMHX 250900 AAB
TAFPGV
TAF AMD
KPGV 250907Z 2509/2606 36005KT 2SM BR OVC002
      TEMPO 2512/2513 4SM BR SCT004
     FM251300 06005KT P6SM SCT040 BKN100
      AMD LTD TO CLD VIS AND WIND=

USA.gov is the U.S. government's official web portal to all federal, state and local government web resources and services.